sensor_id;sensor_type;location;lat;lon;timestamp;pressure;altitude;pressure_sealevel;temperature;humidity
48630;BME280;34426;52.180;4.462;2023-10-09T00:02:18;102117.22;;;16.07;100.00
48630;BME280;34426;52.180;4.462;2023-10-09T00:04:43;102120.41;;;16.26;100.00
48630;BME280;34426;52.180;4.462;2023-10-09T00:07:11;102140.25;;;16.46;100.00
48630;BME280;34426;52.180;4.462;2023-10-09T00:09:37;102131.84;;;16.56;100.00
48630;BME280;34426;52.180;4.462;2023-10-09T00:12:02;102125.69;;;16.70;100.00
48630;BME280;34426;52.180;4.462;2023-10-09T00:14:30;102117.81;;;16.77;100.00
48630;BME280;34426;52.180;4.462;2023-10-09T00:16:56;102126.31;;;16.82;100.00
48630;BME280;34426;52.180;4.462;2023-10-09T00:19:22;102126.88;;;16.89;100.00
48630;BME280;34426;52.180;4.462;2023-10-09T00:21:48;102124.63;;;16.96;100.00
48630;BME280;34426;52.180;4.462;2023-10-09T00:24:15;102128.00;;;16.98;100.00
48630;BME280;34426;52.180;4.462;2023-10-09T00:26:43;102127.44;;;17.01;100.00
48630;BME280;34426;52.180;4.462;2023-10-09T00:29:08;102119.81;;;17.07;100.00
48630;BME280;34426;52.180;4.462;2023-10-09T00:31:34;102130.88;;;17.13;100.00
48630;BME280;34426;52.180;4.462;2023-10-09T00:33:59;102134.56;;;17.19;100.00
48630;BME280;34426;52.180;4.462;2023-10-09T00:36:25;102133.72;;;17.23;100.00
48630;BME280;34426;52.180;4.462;2023-10-09T00:38:50;102134.28;;;17.25;100.00
48630;BME280;34426;52.180;4.462;2023-10-09T00:41:17;102126.09;;;17.29;100.00
48630;BME280;34426;52.180;4.462;2023-10-09T00:43:43;102129.19;;;17.33;100.00
48630;BME280;34426;52.180;4.462;2023-10-09T00:46:09;102124.06;;;17.35;100.00
48630;BME280;34426;52.180;4.462;2023-10-09T00:48:35;102114.47;;;17.36;100.00
48630;BME280;34426;52.180;4.462;2023-10-09T00:51:01;102118.44;;;17.40;100.00
48630;BME280;34426;52.180;4.462;2023-10-09T00:53:27;102109.66;;;17.41;100.00
48630;BME280;34426;52.180;4.462;2023-10-09T00:55:52;102108.81;;;17.46;100.00
48630;BME280;34426;52.180;4.462;2023-10-09T00:58:20;102104.84;;;17.42;100.00
48630;BME280;34426;52.180;4.462;2023-10-09T01:00:46;102098.06;;;17.48;100.00
48630;BME280;34426;52.180;4.462;2023-10-09T01:03:12;102099.47;;;17.50;100.00
48630;BME280;34426;52.180;4.462;2023-10-09T01:05:38;102085.59;;;17.54;100.00
48630;BME280;34426;52.180;4.462;2023-10-09T01:08:04;102096.94;;;17.54;100.00
48630;BME280;34426;52.180;4.462;2023-10-09T01:10:29;102087.59;;;17.53;100.00
48630;BME280;34426;52.180;4.462;2023-10-09T01:13:08;102081.09;;;17.53;100.00
48630;BME280;34426;52.180;4.462;2023-10-09T01:15:35;102071.19;;;17.55;100.00
48630;BME280;34426;52.180;4.462;2023-10-09T01:18:02;102053.91;;;17.52;100.00
48630;BME280;34426;52.180;4.462;2023-10-09T01:20:27;102059.59;;;17.52;100.00
48630;BME280;34426;52.180;4.462;2023-10-09T01:22:53;102049.13;;;17.52;100.00
48630;BME280;34426;52.180;4.462;2023-10-09T01:25:20;102071.47;;;17.54;100.00
48630;BME280;34426;52.180;4.462;2023-10-09T01:27:45;102057.31;;;17.54;100.00
48630;BME280;34426;52.180;4.462;2023-10-09T01:30:11;102066.09;;;17.47;100.00
48630;BME280;34426;52.180;4.462;2023-10-09T01:32:36;102062.13;;;17.48;100.00
48630;BME280;34426;52.180;4.462;2023-10-09T01:35:02;102072.59;;;17.48;100.00
48630;BME280;34426;52.180;4.462;2023-10-09T01:37:28;102062.41;;;17.42;100.00
48630;BME280;34426;52.180;4.462;2023-10-09T01:39:54;102061.84;;;17.40;100.00
48630;BME280;34426;52.180;4.462;2023-10-09T01:42:21;102062.97;;;17.44;100.00
48630;BME280;34426;52.180;4.462;2023-10-09T01:44:47;102066.09;;;17.37;100.00
48630;BME280;34426;52.180;4.462;2023-10-09T01:47:12;102054.50;;;17.39;100.00
48630;BME280;34426;52.180;4.462;2023-10-09T01:49:38;102056.19;;;17.40;100.00
48630;BME280;34426;52.180;4.462;2023-10-09T01:52:03;102058.75;;;17.41;100.00
48630;BME280;34426;52.180;4.462;2023-10-09T01:54:29;102042.63;;;17.42;100.00
48630;BME280;34426;52.180;4.462;2023-10-09T01:56:54;102043.75;;;17.46;100.00
48630;BME280;34426;52.180;4.462;2023-10-09T01:59:21;102040.34;;;17.44;100.00
48630;BME280;34426;52.180;4.462;2023-10-09T02:01:46;102033.28;;;17.41;100.00
48630;BME280;34426;52.180;4.462;2023-10-09T02:04:12;102030.16;;;17.38;100.00
48630;BME280;34426;52.180;4.462;2023-10-09T02:06:37;102019.44;;;17.35;100.00
48630;BME280;34426;52.180;4.462;2023-10-09T02:09:03;102014.91;;;17.39;100.00
48630;BME280;34426;52.180;4.462;2023-10-09T02:11:28;102024.50;;;17.38;100.00
48630;BME280;34426;52.180;4.462;2023-10-09T02:13:54;102025.09;;;17.40;100.00
48630;BME280;34426;52.180;4.462;2023-10-09T02:16:21;102032.44;;;17.41;100.00
48630;BME280;34426;52.180;4.462;2023-10-09T02:18:46;102042.91;;;17.45;100.00
48630;BME280;34426;52.180;4.462;2023-10-09T02:21:12;102036.09;;;17.41;100.00
48630;BME280;34426;52.180;4.462;2023-10-09T02:23:38;102034.13;;;17.42;100.00
48630;BME280;34426;52.180;4.462;2023-10-09T02:26:03;102036.69;;;17.43;100.00
48630;BME280;34426;52.180;4.462;2023-10-09T02:28:29;102039.78;;;17.47;100.00
48630;BME280;34426;52.180;4.462;2023-10-09T02:30:54;102036.38;;;17.50;100.00
48630;BME280;34426;52.180;4.462;2023-10-09T02:33:21;102040.34;;;17.54;100.00
48630;BME280;34426;52.180;4.462;2023-10-09T02:35:46;102026.75;;;17.56;100.00
48630;BME280;34426;52.180;4.462;2023-10-09T02:38:12;102019.13;;;17.56;100.00
48630;BME280;34426;52.180;4.462;2023-10-09T02:40:37;102019.41;;;17.55;100.00
48630;BME280;34426;52.180;4.462;2023-10-09T02:43:03;102016.00;;;17.53;100.00
48630;BME280;34426;52.180;4.462;2023-10-09T02:45:28;102027.31;;;17.53;100.00
48630;BME280;34426;52.180;4.462;2023-10-09T02:47:54;102018.25;;;17.56;100.00
48630;BME280;34426;52.180;4.462;2023-10-09T02:50:21;102016.00;;;17.53;100.00
48630;BME280;34426;52.180;4.462;2023-10-09T02:52:47;102006.97;;;17.51;100.00
48630;BME280;34426;52.180;4.462;2023-10-09T02:55:12;102013.75;;;17.55;100.00
48630;BME280;34426;52.180;4.462;2023-10-09T02:57:38;102023.91;;;17.61;100.00
48630;BME280;34426;52.180;4.462;2023-10-09T03:00:04;102012.31;;;17.62;100.00
48630;BME280;34426;52.180;4.462;2023-10-09T03:02:30;102004.66;;;17.63;100.00
48630;BME280;34426;52.180;4.462;2023-10-09T03:04:55;102006.94;;;17.61;100.00
48630;BME280;34426;52.180;4.462;2023-10-09T03:07:22;101991.94;;;17.60;100.00
48630;BME280;34426;52.180;4.462;2023-10-09T03:09:47;102001.28;;;17.61;100.00
48630;BME280;34426;52.180;4.462;2023-10-09T03:12:13;102002.97;;;17.62;100.00
48630;BME280;34426;52.180;4.462;2023-10-09T03:14:40;102002.97;;;17.62;100.00
48630;BME280;34426;52.180;4.462;2023-10-09T03:17:05;102006.66;;;17.62;100.00
48630;BME280;34426;52.180;4.462;2023-10-09T03:19:32;102015.16;;;17.62;100.00
48630;BME280;34426;52.180;4.462;2023-10-09T03:21:58;102035.25;;;17.66;100.00
48630;BME280;34426;52.180;4.462;2023-10-09T03:24:25;102055.06;;;17.66;100.00
48630;BME280;34426;52.180;4.462;2023-10-09T03:26:50;102070.91;;;17.67;100.00
48630;BME280;34426;52.180;4.462;2023-10-09T03:29:16;102049.41;;;17.71;100.00
48630;BME280;34426;52.180;4.462;2023-10-09T03:31:41;102045.44;;;17.72;100.00
48630;BME280;34426;52.180;4.462;2023-10-09T03:34:07;102045.72;;;17.71;100.00
48630;BME280;34426;52.180;4.462;2023-10-09T03:36:32;102040.06;;;17.71;100.00
48630;BME280;34426;52.180;4.462;2023-10-09T03:38:57;102036.38;;;17.70;100.00
48630;BME280;34426;52.180;4.462;2023-10-09T03:41:24;102033.56;;;17.70;100.00
48630;BME280;34426;52.180;4.462;2023-10-09T03:43:50;102029.31;;;17.68;100.00
48630;BME280;34426;52.180;4.462;2023-10-09T03:46:15;102044.28;;;17.63;100.00
48630;BME280;34426;52.180;4.462;2023-10-09T03:48:41;102025.06;;;17.65;100.00
48630;BME280;34426;52.180;4.462;2023-10-09T03:51:06;102036.41;;;17.65;100.00
48630;BME280;34426;52.180;4.462;2023-10-09T03:53:32;102031.28;;;17.62;100.00
48630;BME280;34426;52.180;4.462;2023-10-09T03:55:57;102019.97;;;17.62;100.00
48630;BME280;34426;52.180;4.462;2023-10-09T03:58:24;102031.28;;;17.62;100.00
48630;BME280;34426;52.180;4.462;2023-10-09T04:00:49;102024.19;;;17.65;100.00
48630;BME280;34426;52.180;4.462;2023-10-09T04:03:15;102028.16;;;17.63;100.00
48630;BME280;34426;52.180;4.462;2023-10-09T04:05:41;102017.16;;;17.67;100.00
48630;BME280;34426;52.180;4.462;2023-10-09T04:08:06;102015.44;;;17.66;100.00
48630;BME280;34426;52.180;4.462;2023-10-09T04:10:32;102003.00;;;17.67;100.00
48630;BME280;34426;52.180;4.462;2023-10-09T04:12:57;101991.13;;;17.65;100.00
48630;BME280;34426;52.180;4.462;2023-10-09T04:15:24;101994.19;;;17.63;100.00
48630;BME280;34426;52.180;4.462;2023-10-09T04:17:49;102000.72;;;17.64;100.00
48630;BME280;34426;52.180;4.462;2023-10-09T04:20:15;102000.16;;;17.62;100.00
48630;BME280;34426;52.180;4.462;2023-10-09T04:22:41;102002.97;;;17.62;100.00
48630;BME280;34426;52.180;4.462;2023-10-09T04:25:07;102009.19;;;17.64;100.00
48630;BME280;34426;52.180;4.462;2023-10-09T04:27:32;102013.44;;;17.61;100.00
48630;BME280;34426;52.180;4.462;2023-10-09T04:29:58;102022.50;;;17.63;100.00
48630;BME280;34426;52.180;4.462;2023-10-09T04:32:25;102014.88;;;17.59;100.00
48630;BME280;34426;52.180;4.462;2023-10-09T04:34:50;102011.47;;;17.62;100.00
48630;BME280;34426;52.180;4.462;2023-10-09T04:37:16;102016.84;;;17.63;100.00
48630;BME280;34426;52.180;4.462;2023-10-09T04:39:41;102023.34;;;17.64;100.00
48630;BME280;34426;52.180;4.462;2023-10-09T04:42:07;102036.09;;;17.61;100.00
48630;BME280;34426;52.180;4.462;2023-10-09T04:44:32;102025.06;;;17.65;100.00
48630;BME280;34426;52.180;4.462;2023-10-09T04:46:58;102022.25;;;17.65;100.00
48630;BME280;34426;52.180;4.462;2023-10-09T04:49:24;102027.91;;;17.65;100.00
48630;BME280;34426;52.180;4.462;2023-10-09T04:51:50;102047.13;;;17.68;99.94
48630;BME280;34426;52.180;4.462;2023-10-09T04:54:15;102047.13;;;17.68;100.00
48630;BME280;34426;52.180;4.462;2023-10-09T04:56:41;102062.13;;;17.63;100.00
48630;BME280;34426;52.180;4.462;2023-10-09T04:59:07;102067.53;;;17.65;100.00
48630;BME280;34426;52.180;4.462;2023-10-09T05:01:32;102060.72;;;17.66;100.00
48630;BME280;34426;52.180;4.462;2023-10-09T05:03:58;102057.31;;;17.69;100.00
48630;BME280;34426;52.180;4.462;2023-10-09T05:06:25;102045.16;;;17.69;100.00
48630;BME280;34426;52.180;4.462;2023-10-09T05:08:50;102045.72;;;17.66;100.00
48630;BME280;34426;52.180;4.462;2023-10-09T05:11:16;102061.25;;;17.63;100.00
48630;BME280;34426;52.180;4.462;2023-10-09T05:13:41;102062.44;;;17.67;100.00
48630;BME280;34426;52.180;4.462;2023-10-09T05:16:08;102068.09;;;17.67;100.00
48630;BME280;34426;52.180;4.462;2023-10-09T05:18:34;102081.66;;;17.65;100.00
48630;BME280;34426;52.180;4.462;2023-10-09T05:20:59;102077.72;;;17.66;100.00
48630;BME280;34426;52.180;4.462;2023-10-09T05:23:26;102075.13;;;17.65;100.00
48630;BME280;34426;52.180;4.462;2023-10-09T05:25:52;102053.63;;;17.63;100.00
48630;BME280;34426;52.180;4.462;2023-10-09T05:28:17;102050.50;;;17.60;100.00
48630;BME280;34426;52.180;4.462;2023-10-09T05:30:43;102041.47;;;17.63;100.00
48630;BME280;34426;52.180;4.462;2023-10-09T05:33:08;102021.09;;;17.61;100.00
48630;BME280;34426;52.180;4.462;2023-10-09T05:35:34;102033.81;;;17.58;100.00
48630;BME280;34426;52.180;4.462;2023-10-09T05:37:59;102022.78;;;17.57;100.00
48630;BME280;34426;52.180;4.462;2023-10-09T05:40:26;102009.22;;;17.49;100.00
48630;BME280;34426;52.180;4.462;2023-10-09T05:42:51;102000.72;;;17.54;100.00
48630;BME280;34426;52.180;4.462;2023-10-09T05:45:17;101992.25;;;17.44;100.00
48630;BME280;34426;52.180;4.462;2023-10-09T05:47:43;102006.97;;;17.51;100.00
48630;BME280;34426;52.180;4.462;2023-10-09T05:50:08;102003.56;;;17.49;100.00
48630;BME280;34426;52.180;4.462;2023-10-09T05:52:34;102011.22;;;17.43;100.00
48630;BME280;34426;52.180;4.462;2023-10-09T05:55:00;101999.91;;;17.43;100.00
48630;BME280;34426;52.180;4.462;2023-10-09T05:57:27;102015.19;;;17.37;100.00
48630;BME280;34426;52.180;4.462;2023-10-09T05:59:52;101995.09;;;17.39;100.00
48630;BME280;34426;52.180;4.462;2023-10-09T06:02:18;101960.06;;;17.29;100.00
48630;BME280;34426;52.180;4.462;2023-10-09T06:04:43;101980.97;;;17.34;100.00
48630;BME280;34426;52.180;4.462;2023-10-09T06:07:09;102055.06;;;17.41;100.00
48630;BME280;34426;52.180;4.462;2023-10-09T06:09:34;102040.91;;;17.41;100.00
48630;BME280;34426;52.180;4.462;2023-10-09T06:12:00;102046.84;;;17.44;100.00
48630;BME280;34426;52.180;4.462;2023-10-09T06:14:26;102045.16;;;17.43;100.00
48630;BME280;34426;52.180;4.462;2023-10-09T06:16:53;102040.34;;;17.49;100.00
48630;BME280;34426;52.180;4.462;2023-10-09T06:19:18;102057.59;;;17.47;100.00
48630;BME280;34426;52.180;4.462;2023-10-09T06:21:44;102052.22;;;17.46;100.00
48630;BME280;34426;52.180;4.462;2023-10-09T06:24:09;102068.06;;;17.47;100.00
48630;BME280;34426;52.180;4.462;2023-10-09T06:26:35;102064.09;;;17.48;100.00
48630;BME280;34426;52.180;4.462;2023-10-09T06:29:01;102052.78;;;17.53;100.00
48630;BME280;34426;52.180;4.462;2023-10-09T06:31:27;102077.13;;;17.54;100.00
48630;BME280;34426;52.180;4.462;2023-10-09T06:33:53;102074.84;;;17.51;100.00
48630;BME280;34426;52.180;4.462;2023-10-09T06:36:18;102082.50;;;17.60;100.00
48630;BME280;34426;52.180;4.462;2023-10-09T06:38:44;102074.03;;;17.66;100.00
48630;BME280;34426;52.180;4.462;2023-10-09T06:41:09;102074.28;;;17.64;100.00
48630;BME280;34426;52.180;4.462;2023-10-09T06:43:35;102065.25;;;17.67;100.00
48630;BME280;34426;52.180;4.462;2023-10-09T06:46:00;102064.94;;;17.63;100.00
48630;BME280;34426;52.180;4.462;2023-10-09T06:48:27;102066.94;;;17.73;100.00
48630;BME280;34426;52.180;4.462;2023-10-09T06:50:53;102063.28;;;17.68;100.00
48630;BME280;34426;52.180;4.462;2023-10-09T06:53:18;102068.03;;;17.77;100.00
48630;BME280;34426;52.180;4.462;2023-10-09T06:55:44;102044.81;;;17.80;100.00
48630;BME280;34426;52.180;4.462;2023-10-09T06:58:09;102020.53;;;17.69;100.00
48630;BME280;34426;52.180;4.462;2023-10-09T07:00:38;102000.16;;;17.57;100.00
48630;BME280;34426;52.180;4.462;2023-10-09T07:03:03;101982.03;;;17.63;100.00
48630;BME280;34426;52.180;4.462;2023-10-09T07:05:30;101991.97;;;17.66;100.00
48630;BME280;34426;52.180;4.462;2023-10-09T07:07:56;101973.28;;;17.70;100.00
48630;BME280;34426;52.180;4.462;2023-10-09T07:10:22;101989.97;;;17.71;100.00
48630;BME280;34426;52.180;4.462;2023-10-09T07:12:47;102009.72;;;17.76;100.00
48630;BME280;34426;52.180;4.462;2023-10-09T07:15:13;102005.19;;;17.80;100.00
48630;BME280;34426;52.180;4.462;2023-10-09T07:17:38;102031.22;;;17.82;100.00
48630;BME280;34426;52.180;4.462;2023-10-09T07:20:05;102036.31;;;17.85;100.00
48630;BME280;34426;52.180;4.462;2023-10-09T07:22:32;102022.72;;;17.87;100.00
48630;BME280;34426;52.180;4.462;2023-10-09T07:24:57;102025.53;;;17.92;100.00
48630;BME280;34426;52.180;4.462;2023-10-09T07:27:23;102005.69;;;17.98;100.00
48630;BME280;34426;52.180;4.462;2023-10-09T07:29:49;101994.66;;;17.96;100.00
48630;BME280;34426;52.180;4.462;2023-10-09T07:32:14;102007.94;;;18.06;100.00
48630;BME280;34426;52.180;4.462;2023-10-09T07:34:40;102007.63;;;18.12;99.49
48630;BME280;34426;52.180;4.462;2023-10-09T07:37:05;102019.78;;;18.18;99.55
48630;BME280;34426;52.180;4.462;2023-10-09T07:39:32;102020.56;;;18.23;98.52
48630;BME280;34426;52.180;4.462;2023-10-09T07:41:58;102034.44;;;18.25;98.57
48630;BME280;34426;52.180;4.462;2023-10-09T07:44:23;102035.88;;;18.22;98.42
48630;BME280;34426;52.180;4.462;2023-10-09T07:46:48;102046.31;;;18.32;97.92
48630;BME280;34426;52.180;4.462;2023-10-09T07:49:14;102055.06;;;18.36;97.23
48630;BME280;34426;52.180;4.462;2023-10-09T07:51:40;102065.53;;;18.40;96.56
48630;BME280;34426;52.180;4.462;2023-10-09T07:54:06;102059.28;;;18.43;96.12
48630;BME280;34426;52.180;4.462;2023-10-09T07:56:33;102070.03;;;18.46;95.79
48630;BME280;34426;52.180;4.462;2023-10-09T07:58:58;102067.19;;;18.51;95.88
48630;BME280;34426;52.180;4.462;2023-10-09T08:01:23;102065.47;;;18.55;95.31
48630;BME280;34426;52.180;4.462;2023-10-09T08:03:49;102069.69;;;18.58;94.34
48630;BME280;34426;52.180;4.462;2023-10-09T08:06:15;102085.88;;;18.63;94.12
48630;BME280;34426;52.180;4.462;2023-10-09T08:08:41;102090.34;;;18.69;94.13
48630;BME280;34426;52.180;4.462;2023-10-09T08:11:09;102103.38;;;18.70;94.36
48630;BME280;34426;52.180;4.462;2023-10-09T08:13:36;102099.41;;;18.71;94.75
48630;BME280;34426;52.180;4.462;2023-10-09T08:16:02;102101.66;;;18.69;94.63
48630;BME280;34426;52.180;4.462;2023-10-09T08:18:27;102103.34;;;18.75;94.68
48630;BME280;34426;52.180;4.462;2023-10-09T08:20:53;102107.28;;;18.79;94.76
48630;BME280;34426;52.180;4.462;2023-10-09T08:23:18;102107.53;;;18.87;94.27
48630;BME280;34426;52.180;4.462;2023-10-09T08:25:43;102110.88;;;18.94;93.98
48630;BME280;34426;52.180;4.462;2023-10-09T08:28:09;102123.00;;;19.05;93.90
48630;BME280;34426;52.180;4.462;2023-10-09T08:30:36;102136.53;;;19.13;93.94
48630;BME280;34426;52.180;4.462;2023-10-09T08:33:01;102145.91;;;19.14;93.45
48630;BME280;34426;52.180;4.462;2023-10-09T08:35:27;102151.78;;;19.22;93.64
48630;BME280;34426;52.180;4.462;2023-10-09T08:37:52;102154.59;;;19.27;92.85
48630;BME280;34426;52.180;4.462;2023-10-09T08:40:18;102159.94;;;19.34;92.63
48630;BME280;34426;52.180;4.462;2023-10-09T08:42:45;102155.41;;;19.33;92.13
48630;BME280;34426;52.180;4.462;2023-10-09T08:45:14;102164.19;;;19.37;91.53
48630;BME280;34426;52.180;4.462;2023-10-09T08:47:41;102153.41;;;19.34;91.37
48630;BME280;34426;52.180;4.462;2023-10-09T08:50:07;102152.31;;;19.30;91.10
48630;BME280;34426;52.180;4.462;2023-10-09T08:52:33;102156.22;;;19.39;91.27
48630;BME280;34426;52.180;4.462;2023-10-09T08:54:58;102155.09;;;19.40;90.89
48630;BME280;34426;52.180;4.462;2023-10-09T08:57:24;102166.41;;;19.45;90.78
48630;BME280;34426;52.180;4.462;2023-10-09T08:59:49;102161.81;;;19.49;89.91
48630;BME280;34426;52.180;4.462;2023-10-09T09:02:15;102169.16;;;19.50;89.60
48630;BME280;34426;52.180;4.462;2023-10-09T09:04:41;102165.81;;;19.48;88.87
48630;BME280;34426;52.180;4.462;2023-10-09T09:07:24;102174.84;;;19.50;89.10
48630;BME280;34426;52.180;4.462;2023-10-09T09:09:54;102171.78;;;19.46;88.45
48630;BME280;34426;52.180;4.462;2023-10-09T09:12:20;102173.72;;;19.51;88.50
48630;BME280;34426;52.180;4.462;2023-10-09T09:14:45;102166.91;;;19.52;88.17
48630;BME280;34426;52.180;4.462;2023-10-09T09:17:22;102165.22;;;19.51;87.44
48630;BME280;34426;52.180;4.462;2023-10-09T09:19:49;102162.84;;;19.63;87.66
48630;BME280;34426;52.180;4.462;2023-10-09T09:22:14;102166.78;;;19.67;87.13
48630;BME280;34426;52.180;4.462;2023-10-09T09:24:40;102174.75;;;19.65;86.60
48630;BME280;34426;52.180;4.462;2023-10-09T09:27:06;102164.25;;;19.66;86.41
48630;BME280;34426;52.180;4.462;2023-10-09T09:29:39;102163.06;;;19.72;86.00
48630;BME280;34426;52.180;4.462;2023-10-09T09:32:06;102174.13;;;19.73;85.46
48630;BME280;34426;52.180;4.462;2023-10-09T09:34:43;102172.69;;;19.76;85.33
48630;BME280;34426;52.180;4.462;2023-10-09T09:37:10;102178.63;;;19.79;85.13
48630;BME280;34426;52.180;4.462;2023-10-09T09:39:35;102171.84;;;19.75;84.51
48630;BME280;34426;52.180;4.462;2023-10-09T09:42:01;102167.31;;;19.74;84.77
48630;BME280;34426;52.180;4.462;2023-10-09T09:44:27;102167.84;;;19.76;84.32
48630;BME280;34426;52.180;4.462;2023-10-09T09:46:53;102159.88;;;19.78;84.48
48630;BME280;34426;52.180;4.462;2023-10-09T09:49:20;102164.97;;;19.81;84.73
48630;BME280;34426;52.180;4.462;2023-10-09T09:51:46;102167.59;;;19.73;84.32
48630;BME280;34426;52.180;4.462;2023-10-09T09:54:13;102172.44;;;19.72;84.76
48630;BME280;34426;52.180;4.462;2023-10-09T09:56:40;102170.13;;;19.74;84.64
48630;BME280;34426;52.180;4.462;2023-10-09T09:59:08;102174.13;;;19.73;84.61
48630;BME280;34426;52.180;4.462;2023-10-09T10:01:35;102174.09;;;19.78;84.20
48630;BME280;34426;52.180;4.462;2023-10-09T10:04:06;102176.81;;;19.88;83.90
48630;BME280;34426;52.180;4.462;2023-10-09T10:06:33;102173.69;;;19.90;84.19
48630;BME280;34426;52.180;4.462;2023-10-09T10:08:59;102177.81;;;20.03;84.11
48630;BME280;34426;52.180;4.462;2023-10-09T10:11:44;102178.25;;;20.15;82.67
48630;BME280;34426;52.180;4.462;2023-10-09T10:14:09;102172.50;;;20.20;82.38
48630;BME280;34426;52.180;4.462;2023-10-09T10:17:00;102170.03;;;20.37;82.55
48630;BME280;34426;52.180;4.462;2023-10-09T10:19:59;102164.25;;;20.23;82.64
48630;BME280;34426;52.180;4.462;2023-10-09T10:22:25;102163.03;;;20.30;82.08
48630;BME280;34426;52.180;4.462;2023-10-09T10:24:51;102164.44;;;20.32;81.17
48630;BME280;34426;52.180;4.462;2023-10-09T10:27:19;102173.75;;;20.38;81.76
48630;BME280;34426;52.180;4.462;2023-10-09T10:29:45;102176.22;;;20.44;80.32
48630;BME280;34426;52.180;4.462;2023-10-09T10:32:11;102173.88;;;20.51;80.25
48630;BME280;34426;52.180;4.462;2023-10-09T10:34:52;102185.19;;;20.56;80.25
48630;BME280;34426;52.180;4.462;2023-10-09T10:37:18;102173.34;;;20.49;78.84
48630;BME280;34426;52.180;4.462;2023-10-09T10:39:49;102163.72;;;20.45;79.38
48630;BME280;34426;52.180;4.462;2023-10-09T10:42:15;102176.53;;;20.43;79.09
48630;BME280;34426;52.180;4.462;2023-10-09T10:44:42;102170.97;;;20.33;78.84
48630;BME280;34426;52.180;4.462;2023-10-09T10:47:09;102180.72;;;20.50;79.79
48630;BME280;34426;52.180;4.462;2023-10-09T10:49:35;102176.91;;;20.60;78.58
48630;BME280;34426;52.180;4.462;2023-10-09T10:52:00;102189.72;;;20.57;77.73
48630;BME280;34426;52.180;4.462;2023-10-09T10:54:26;102195.72;;;20.56;78.13
48630;BME280;34426;52.180;4.462;2023-10-09T10:56:51;102188.09;;;20.51;78.35
48630;BME280;34426;52.180;4.462;2023-10-09T10:59:18;102193.66;;;20.62;77.59
48630;BME280;34426;52.180;4.462;2023-10-09T11:01:45;102189.00;;;20.71;77.70
48630;BME280;34426;52.180;4.462;2023-10-09T11:04:11;102186.69;;;20.73;77.35
48630;BME280;34426;52.180;4.462;2023-10-09T11:06:37;102184.94;;;20.77;76.96
48630;BME280;34426;52.180;4.462;2023-10-09T11:09:03;102184.22;;;20.66;76.28
48630;BME280;34426;52.180;4.462;2023-10-09T11:11:29;102181.84;;;20.49;75.86
48630;BME280;34426;52.180;4.462;2023-10-09T11:14:07;102179.94;;;20.69;75.69
48630;BME280;34426;52.180;4.462;2023-10-09T11:16:36;102176.25;;;20.87;76.29
48630;BME280;34426;52.180;4.462;2023-10-09T11:19:03;102172.31;;;20.83;75.37
48630;BME280;34426;52.180;4.462;2023-10-09T11:21:28;102171.63;;;20.91;75.60
48630;BME280;34426;52.180;4.462;2023-10-09T11:23:54;102187.31;;;20.70;74.29
48630;BME280;34426;52.180;4.462;2023-10-09T11:26:20;102190.22;;;20.65;74.61
48630;BME280;34426;52.180;4.462;2023-10-09T11:28:46;102188.63;;;20.53;75.47
48630;BME280;34426;52.180;4.462;2023-10-09T11:31:30;102189.25;;;20.50;76.32
48630;BME280;34426;52.180;4.462;2023-10-09T11:33:56;102193.53;;;20.48;76.53
48630;BME280;34426;52.180;4.462;2023-10-09T11:36:22;102172.25;;;20.45;76.52
48630;BME280;34426;52.180;4.462;2023-10-09T11:38:48;102181.47;;;20.32;75.79
48630;BME280;34426;52.180;4.462;2023-10-09T11:41:14;102170.59;;;20.39;75.95
48630;BME280;34426;52.180;4.462;2023-10-09T11:43:50;102186.34;;;20.55;76.62
48630;BME280;34426;52.180;4.462;2023-10-09T11:46:15;102191.00;;;20.46;76.52
48630;BME280;34426;52.180;4.462;2023-10-09T11:48:41;102180.09;;;20.53;76.83
48630;BME280;34426;52.180;4.462;2023-10-09T11:51:12;102168.06;;;20.62;76.71
48630;BME280;34426;52.180;4.462;2023-10-09T11:53:41;102163.72;;;20.69;76.19
48630;BME280;34426;52.180;4.462;2023-10-09T11:56:07;102160.81;;;20.50;75.62
48630;BME280;34426;52.180;4.462;2023-10-09T11:58:32;102154.53;;;20.53;76.63
48630;BME280;34426;52.180;4.462;2023-10-09T12:00:58;102164.06;;;20.63;76.40
48630;BME280;34426;52.180;4.462;2023-10-09T12:03:25;102168.47;;;20.74;77.09
48630;BME280;34426;52.180;4.462;2023-10-09T12:05:50;102172.84;;;20.85;77.15
48630;BME280;34426;52.180;4.462;2023-10-09T12:08:16;102178.31;;;20.81;76.85
48630;BME280;34426;52.180;4.462;2023-10-09T12:10:43;102180.00;;;20.82;76.97
48630;BME280;34426;52.180;4.462;2023-10-09T12:13:08;102173.50;;;21.01;77.30
48630;BME280;34426;52.180;4.462;2023-10-09T12:15:34;102169.13;;;21.08;76.74
48630;BME280;34426;52.180;4.462;2023-10-09T12:17:59;102174.88;;;21.03;76.19
48630;BME280;34426;52.180;4.462;2023-10-09T12:20:25;102180.72;;;20.93;75.39
48630;BME280;34426;52.180;4.462;2023-10-09T12:22:50;102172.41;;;20.78;76.62
48630;BME280;34426;52.180;4.462;2023-10-09T12:25:15;102170.59;;;20.63;76.29
48630;BME280;34426;52.180;4.462;2023-10-09T12:27:42;102170.47;;;20.73;77.25
48630;BME280;34426;52.180;4.462;2023-10-09T12:30:09;102170.84;;;20.67;77.02
48630;BME280;34426;52.180;4.462;2023-10-09T12:32:34;102165.28;;;20.56;77.78
48630;BME280;34426;52.180;4.462;2023-10-09T12:35:00;102161.72;;;20.70;77.45
48630;BME280;34426;52.180;4.462;2023-10-09T12:37:25;102150.72;;;20.82;77.09
48630;BME280;34426;52.180;4.462;2023-10-09T12:39:50;102161.78;;;20.65;76.78